Time;durP1;ratioP1;P1;durP2;ratioP2;P2;SDS_P1;SDS_P2;PMS_P1;PMS_P2;Temp;Humidity;BMP_temperature;BMP_pressure;BME280_temperature;BME280_humidity;BME280_pressure;Samples;Min_cycle;Max_cycle;Signal;HPM_P1;HPM_P2
2021/09/30 00:08:48;;;;;;;8.38;7.37;;;;;;;18.33;73.39;100497.34;909870;27;20370;-90
2021/09/30 00:11:28;;;;;;;10.02;7.43;;;;;;;18.63;72.12;100494.66;4345191;32;31909;-91
2021/09/30 00:14:51;;;;;;;;;;;;;;;;;;;;;
2021/09/30 00:35:50;;;;;;;7.30;6.60;;;;;;;18.27;73.51;100503.41;4383532;32;35086;-94
2021/09/30 00:45:30;;;;;;;6.45;5.60;;;;;;;17.63;76.41;100506.34;4375376;32;35714;-93
2021/09/30 03:00:49;;;;;;;4.90;4.37;;;;;;;16.05;76.50;100597.25;4288772;33;34640;-91
2021/09/30 03:03:40;;;;;;;6.47;4.03;;;;;;;15.88;76.91;100588.25;4275866;33;33453;-89
2021/09/30 03:06:29;;;;;;;5.22;4.57;;;;;;;15.58;77.58;100591.41;4277169;33;33769;-91
2021/09/30 03:09:22;;;;;;;6.68;5.12;;;;;;;15.98;76.52;100596.22;4289373;33;33185;-93
2021/09/30 03:12:17;;;;;;;3.80;3.50;;;;;;;16.19;75.04;100599.34;4289881;33;34993;-91
2021/09/30 03:17:49;;;;;;;5.20;4.70;;;;;;;16.70;73.54;100610.81;4311494;33;34800;-91
2021/09/30 03:23:13;;;;;;;6.40;4.40;;;;;;;16.66;73.51;100600.56;4393417;32;35599;-90
2021/09/30 03:26:02;;;;;;;6.07;4.30;;;;;;;16.34;74.56;100609.31;4368701;32;35450;-90
2021/09/30 03:28:51;;;;;;;5.30;4.43;;;;;;;16.36;74.40;100599.28;4379405;32;33543;-92
2021/09/30 03:31:42;;;;;;;3.72;3.33;;;;;;;16.49;73.79;100604.19;4395519;32;33634;-91
2021/09/30 03:34:16;;;;;;;5.32;4.55;;;;;;;16.74;72.88;100606.81;4363167;32;34115;-91
2021/09/30 03:36:58;;;;;;;4.35;3.62;;;;;;;16.95;72.21;100600.97;4412065;32;33872;-92
2021/09/30 03:39:36;;;;;;;4.53;4.00;;;;;;;16.96;72.25;100592.75;4412550;32;32267;-91
2021/09/30 03:42:08;;;;;;;12.40;4.82;;;;;;;17.03;71.99;100609.03;4399330;32;33384;-91
2021/09/30 03:44:41;;;;;;;3.33;3.03;;;;;;;17.06;71.92;100606.87;4387082;32;35683;-90
2021/09/30 03:47:18;;;;;;;4.60;4.00;;;;;;;16.83;72.79;100602.28;4404357;32;34514;-90
2021/09/30 03:49:50;;;;;;;4.37;3.97;;;;;;;16.68;73.35;100598.53;4400471;32;34126;-91
2021/09/30 03:52:33;;;;;;;5.07;4.53;;;;;;;16.76;73.02;100595.88;4386659;32;32997;-90
2021/09/30 04:00:20;;;;;;;6.15;3.92;;;;;;;17.09;71.94;100595.78;4411842;32;35204;-91
2021/09/30 04:02:50;;;;;;;4.00;3.62;;;;;;;16.99;72.43;100607.72;4375600;32;34061;-90
2021/09/30 04:05:29;;;;;;;4.37;3.97;;;;;;;16.81;72.92;100607.81;4391306;32;34075;-92
2021/09/30 04:08:08;;;;;;;5.72;4.22;;;;;;;16.83;72.83;100611.22;4378428;32;33861;-92
2021/09/30 04:10:50;;;;;;;5.35;4.82;;;;;;;16.84;73.15;100606.66;4394764;32;33772;-92
2021/09/30 04:13:20;;;;;;;7.32;4.85;;;;;;;16.88;73.03;100605.34;4393952;32;34844;-92
2021/09/30 04:15:55;;;;;;;4.50;4.10;;;;;;;16.99;72.46;100605.00;4380944;32;36110;-91
2021/09/30 04:18:24;;;;;;;7.95;4.45;;;;;;;16.45;74.28;100606.37;4392164;32;34907;-93
2021/09/30 04:20:53;;;;;;;4.85;4.35;;;;;;;16.73;73.22;100604.28;4380448;32;32661;-92
2021/09/30 04:23:22;;;;;;;7.15;3.92;;;;;;;16.32;74.69;100602.44;4391412;32;33035;-89
2021/09/30 04:26:11;;;;;;;6.07;5.45;;;;;;;16.49;74.23;100609.56;4390850;32;36880;-91
2021/09/30 04:28:57;;;;;;;4.72;4.32;;;;;;;16.64;73.71;100605.25;4379266;32;33605;-90
2021/09/30 04:31:34;;;;;;;4.35;3.75;;;;;;;16.25;75.26;100601.38;4391747;32;33516;-94
2021/09/30 04:34:07;;;;;;;5.65;5.15;;;;;;;16.63;73.80;100601.72;4392557;32;34135;-90
2021/09/30 04:36:47;;;;;;;5.37;4.45;;;;;;;16.68;73.63;100602.09;4403460;32;34580;-91
2021/09/30 04:39:21;;;;;;;5.00;4.45;;;;;;;16.89;72.89;100610.53;4384791;32;33395;-90
2021/09/30 04:41:50;;;;;;;4.10;3.60;;;;;;;16.73;73.60;100606.97;4390023;32;32628;-91
2021/09/30 04:44:20;;;;;;;5.72;5.22;;;;;;;17.03;72.59;100611.72;4384286;32;33386;-93
2021/09/30 04:46:51;;;;;;;4.43;4.05;;;;;;;16.94;73.15;100620.78;4390829;32;35507;-91
2021/09/30 04:49:28;;;;;;;10.50;5.72;;;;;;;16.30;75.29;100623.22;4390846;32;34144;-90
2021/09/30 04:52:00;;;;;;;5.22;4.70;;;;;;;16.68;74.00;100626.25;4392950;32;33934;-89
2021/09/30 04:54:40;;;;;;;4.57;4.18;;;;;;;17.03;72.80;100620.66;4376868;32;33206;-90
2021/09/30 04:57:13;;;;;;;4.60;4.22;;;;;;;16.64;73.88;100624.06;4409815;32;36705;-89
2021/09/30 04:59:45;;;;;;;4.55;4.03;;;;;;;16.68;73.76;100634.31;4392525;32;33247;-90
2021/09/30 05:02:25;;;;;;;4.05;3.75;;;;;;;17.07;72.33;100637.28;4394608;32;32601;-90
2021/09/30 05:05:00;;;;;;;4.72;3.87;;;;;;;17.28;71.54;100648.41;4370655;32;32833;-90
2021/09/30 05:07:29;;;;;;;6.12;5.25;;;;;;;17.25;71.77;100651.44;4389345;32;34483;-92
2021/09/30 05:10:01;;;;;;;7.65;5.20;;;;;;;17.19;72.08;100647.53;4412891;32;34392;-89
2021/09/30 05:12:31;;;;;;;5.43;4.85;;;;;;;17.07;72.46;100650.75;4388353;32;34585;-91
2021/09/30 05:15:12;;;;;;;4.62;4.18;;;;;;;17.35;71.53;100658.34;4400000;32;33721;-92
2021/09/30 05:17:41;;;;;;;7.75;6.32;;;;;;;17.22;72.14;100655.31;4401758;32;34394;-91
2021/09/30 05:20:13;;;;;;;6.18;5.55;;;;;;;17.16;72.38;100658.63;4386958;32;33392;-91
2021/09/30 05:22:41;;;;;;;6.68;5.53;;;;;;;17.21;72.13;100659.00;4376277;32;33150;-89
2021/09/30 05:25:14;;;;;;;6.62;6.00;;;;;;;17.54;70.85;100658.91;4400263;32;32782;-89
2021/09/30 05:27:42;;;;;;;7.43;6.22;;;;;;;17.49;70.72;100655.03;4384554;32;35180;-91
2021/09/30 05:30:16;;;;;;;8.65;7.68;;;;;;;17.17;72.05;100667.56;4393263;32;33835;-89
2021/09/30 05:32:47;;;;;;;10.10;6.15;;;;;;;17.41;71.08;100673.84;4399938;32;33493;-89
2021/09/30 05:35:18;;;;;;;11.05;7.80;;;;;;;17.62;70.04;100669.66;4395108;32;34507;-89
2021/09/30 05:37:52;;;;;;;6.75;6.07;;;;;;;17.62;70.05;100674.19;4392332;32;34650;-89
2021/09/30 05:40:24;;;;;;;7.32;5.20;;;;;;;17.64;70.19;100672.16;4383129;32;33859;-92
2021/09/30 05:43:05;;;;;;;6.68;5.97;;;;;;;17.64;70.09;100677.53;4410239;32;33493;-90
2021/09/30 05:45:42;;;;;;;8.23;7.37;;;;;;;17.74;69.54;100672.84;4408325;32;33703;-87
2021/09/30 05:48:10;;;;;;;13.10;7.00;;;;;;;17.58;70.23;100689.00;4391027;32;35483;-89
2021/09/30 05:50:39;;;;;;;7.68;6.82;;;;;;;17.68;69.86;100682.44;4381138;32;33612;-90
2021/09/30 05:53:10;;;;;;;7.57;5.95;;;;;;;17.69;69.99;100685.97;4369597;32;32956;-89
2021/09/30 05:55:42;;;;;;;7.82;7.12;;;;;;;17.62;70.36;100695.72;4386259;32;34400;-89
2021/09/30 05:58:15;;;;;;;11.85;6.65;;;;;;;17.56;70.75;100691.84;4396511;32;35945;-88
2021/09/30 06:14:45;;;;;;;7.80;7.05;;;;;;;18.05;69.14;100698.06;4394818;32;33125;-88
2021/09/30 06:17:16;;;;;;;11.23;6.80;;;;;;;18.13;68.71;100708.84;4393563;32;34507;-90
2021/09/30 06:19:47;;;;;;;8.65;5.93;;;;;;;18.13;68.65;100712.34;4383178;32;34166;-90
2021/09/30 06:22:19;;;;;;;9.70;7.12;;;;;;;18.01;69.06;100710.19;4408634;32;33649;-93
2021/09/30 06:25:00;;;;;;;10.43;6.60;;;;;;;17.88;69.70;100715.25;4412619;32;33971;-88
2021/09/30 06:27:32;;;;;;;9.93;7.72;;;;;;;17.88;69.78;100713.38;4414131;32;33418;-85
2021/09/30 06:30:03;;;;;;;7.65;6.87;;;;;;;18.05;69.40;100716.94;4394044;32;34886;-89
2021/09/30 06:32:52;;;;;;;7.82;5.18;;;;;;;17.62;71.04;100723.47;4385707;32;33585;-87
2021/09/30 06:35:24;;;;;;;11.55;5.72;;;;;;;17.78;70.92;100728.84;4383649;32;33630;-87
2021/09/30 06:37:53;;;;;;;9.60;5.68;;;;;;;17.68;71.31;100719.28;4386761;32;34835;-86
2021/09/30 06:40:21;;;;;;;7.60;5.80;;;;;;;17.74;71.47;100727.53;4398998;32;35191;-87
2021/09/30 06:42:58;;;;;;;9.70;5.57;;;;;;;17.93;71.12;100729.88;4379533;32;34300;-87
2021/09/30 06:45:34;;;;;;;5.75;5.28;;;;;;;17.76;71.67;100727.38;4396265;32;33569;-86
2021/09/30 06:48:08;;;;;;;10.57;6.35;;;;;;;17.87;71.44;100735.94;4379093;32;32386;-86
2021/09/30 06:50:46;;;;;;;7.53;6.82;;;;;;;17.82;71.73;100735.59;4388647;32;34024;-86
2021/09/30 06:53:17;;;;;;;9.00;7.68;;;;;;;17.89;71.54;100735.78;4388907;32;34378;-86
2021/09/30 06:55:59;;;;;;;8.20;7.40;;;;;;;18.03;71.17;100738.63;4385017;32;32888;-89
2021/09/30 06:58:43;;;;;;;7.45;6.78;;;;;;;18.15;70.95;100736.44;4392004;32;33057;-86
2021/09/30 07:01:37;;;;;;;7.30;5.37;;;;;;;18.05;71.21;100741.16;4394538;32;35401;-87
2021/09/30 07:04:11;;;;;;;6.62;5.35;;;;;;;18.02;70.96;100749.56;4368952;32;34977;-87
2021/09/30 07:06:40;;;;;;;5.95;5.25;;;;;;;18.00;71.07;100741.66;4397086;32;34358;-87
2021/09/30 07:09:27;;;;;;;7.35;4.72;;;;;;;18.20;69.48;100748.38;4373102;32;34569;-86
2021/09/30 07:12:03;;;;;;;5.28;4.62;;;;;;;18.04;70.29;100755.63;4379746;32;35275;-88
2021/09/30 07:14:51;;;;;;;3.85;3.47;;;;;;;17.91;70.30;100750.75;4375101;32;33310;-85
2021/09/30 07:17:21;;;;;;;4.78;3.85;;;;;;;17.61;71.90;100766.69;4363156;32;32076;-87
2021/09/30 07:20:02;;;;;;;5.60;5.10;;;;;;;17.61;71.68;100766.69;4360752;32;34059;-88
2021/09/30 07:22:33;;;;;;;8.80;3.53;;;;;;;17.69;71.74;100777.47;4376570;32;36065;-85
2021/09/30 07:25:16;;;;;;;6.45;4.45;;;;;;;17.76;70.15;100778.50;4388811;32;34046;-89
2021/09/30 07:27:44;;;;;;;4.97;4.50;;;;;;;17.52;71.95;100789.22;4383209;32;34069;-86
2021/09/30 07:30:28;;;;;;;4.75;4.35;;;;;;;17.49;72.08;100785.00;4396853;32;33208;-87
2021/09/30 07:33:13;;;;;;;6.47;4.75;;;;;;;17.79;70.93;100787.06;4376010;32;34430;-86
2021/09/30 07:35:49;;;;;;;4.12;3.83;;;;;;;17.88;71.01;100790.63;4372005;32;34113;-87
2021/09/30 07:38:17;;;;;;;6.53;4.45;;;;;;;17.53;71.99;100796.28;4396250;32;33519;-86
2021/09/30 07:40:53;;;;;;;4.10;3.70;;;;;;;17.48;72.35;100791.38;4379482;32;33908;-88
2021/09/30 07:43:23;;;;;;;6.22;5.55;;;;;;;17.52;72.19;100800.81;4374277;32;35275;-86
2021/09/30 07:45:51;;;;;;;5.03;4.62;;;;;;;17.61;72.05;100810.59;4388842;32;33911;-86
2021/09/30 07:48:21;;;;;;;5.57;4.05;;;;;;;17.69;71.70;100815.97;4392669;32;34608;-86
2021/09/30 07:51:05;;;;;;;6.65;3.08;;;;;;;17.60;71.45;100813.44;4380469;32;33447;-90
2021/09/30 07:54:04;;;;;;;4.28;3.87;;;;;;;17.65;70.80;100814.62;4370687;32;34199;-87
2021/09/30 07:56:44;;;;;;;4.10;3.70;;;;;;;17.53;71.65;100817.78;4363601;32;33715;-86
2021/09/30 07:59:14;;;;;;;4.75;4.22;;;;;;;17.43;72.26;100830.56;4389311;32;33564;-86
2021/09/30 08:01:53;;;;;;;4.10;3.35;;;;;;;17.47;71.99;100826.50;4376191;32;34803;-86
2021/09/30 08:04:25;;;;;;;3.60;3.30;;;;;;;17.50;71.58;100826.22;4358781;32;34792;-84
2021/09/30 08:06:54;;;;;;;3.78;3.42;;;;;;;17.67;71.40;100817.19;4379553;32;34788;-85
2021/09/30 08:09:30;;;;;;;5.68;4.80;;;;;;;17.72;72.08;100831.81;4374316;32;33450;-84
2021/09/30 08:12:00;;;;;;;4.00;3.05;;;;;;;17.72;72.26;100833.66;4386001;32;33664;-84
2021/09/30 08:14:48;;;;;;;6.87;4.97;;;;;;;17.42;72.61;100834.25;4388456;32;35548;-84
2021/09/30 08:17:36;;;;;;;3.35;3.10;;;;;;;17.17;73.58;100837.78;4388910;32;34010;-87
2021/09/30 08:20:24;;;;;;;4.53;4.12;;;;;;;17.57;72.65;100822.69;4386463;32;33974;-83
2021/09/30 08:22:58;;;;;;;5.25;4.68;;;;;;;17.73;72.25;100829.97;4383666;32;33721;-87
2021/09/30 08:25:34;;;;;;;3.75;3.45;;;;;;;17.14;73.39;100830.06;4397335;32;35266;-85
2021/09/30 08:28:20;;;;;;;8.65;3.35;;;;;;;17.87;70.10;100832.00;4385770;32;34552;-85
2021/09/30 08:31:05;;;;;;;3.53;3.22;;;;;;;17.55;71.70;100835.47;4385054;32;33130;-84
2021/09/30 08:33:43;;;;;;;4.20;2.60;;;;;;;17.42;72.52;100836.09;4386354;32;33611;-86
2021/09/30 08:36:14;;;;;;;4.50;3.87;;;;;;;17.69;71.93;100836.69;4387020;32;34743;-85
2021/09/30 08:38:47;;;;;;;3.22;2.95;;;;;;;17.69;72.01;100839.38;4380722;32;33453;-85
2021/09/30 08:41:24;;;;;;;6.05;4.72;;;;;;;17.70;72.18;100841.06;4387554;32;33531;-84
2021/09/30 08:43:54;;;;;;;4.30;3.55;;;;;;;18.05;69.26;100840.78;4395696;32;34393;-83
2021/09/30 08:46:24;;;;;;;3.20;2.90;;;;;;;17.72;70.70;100845.28;4375412;32;34370;-82
2021/09/30 08:49:01;;;;;;;3.80;3.47;;;;;;;17.83;70.63;100842.28;4375514;32;33504;-81
2021/09/30 08:51:35;;;;;;;10.10;3.62;;;;;;;17.69;70.89;100842.91;4389639;32;33517;-84
2021/09/30 08:54:24;;;;;;;3.85;3.37;;;;;;;17.28;72.98;100848.25;4365455;32;34011;-82
2021/09/30 08:56:57;;;;;;;3.83;3.50;;;;;;;17.29;72.13;100843.75;4362735;32;34296;-86
2021/09/30 09:00:08;;;;;;;3.65;3.35;;;;;;;17.44;71.08;100847.53;4387183;32;33537;-87
2021/09/30 09:02:52;;;;;;;2.97;2.60;;;;;;;17.17;72.46;100858.50;4396509;32;33859;-86
2021/09/30 09:05:29;;;;;;;;;;;;;;;17.15;72.22;100849.72;4396426;32;33717;-88
2021/09/30 09:08:08;;;;;;;2.75;2.55;;;;;;;17.39;71.17;100849.88;4408087;32;34753;-87
2021/09/30 09:10:50;;;;;;;4.70;4.05;;;;;;;17.04;72.27;100848.16;4399772;32;34161;-86
2021/09/30 09:13:22;;;;;;;3.40;3.10;;;;;;;17.13;72.19;100857.97;4391558;32;33335;-87
2021/09/30 09:16:03;;;;;;;10.35;4.45;;;;;;;17.13;72.72;100859.78;4387332;32;32819;-88
2021/09/30 09:18:41;;;;;;;3.42;3.12;;;;;;;17.19;71.84;100865.38;4390055;32;34937;-87
2021/09/30 09:21:24;;;;;;;3.15;2.85;;;;;;;17.29;71.41;100868.81;4403561;32;35116;-86
2021/09/30 09:24:05;;;;;;;4.55;3.30;;;;;;;16.79;73.30;100870.50;4399653;32;32473;-86
2021/09/30 09:26:42;;;;;;;4.60;4.18;;;;;;;17.12;72.31;100860.78;4388382;32;32998;-86
2021/09/30 09:29:15;;;;;;;3.62;3.33;;;;;;;17.13;72.79;100868.72;4389776;32;35709;-89
2021/09/30 09:32:05;;;;;;;3.10;2.80;;;;;;;17.06;72.80;100864.16;4394280;32;34723;-87
2021/09/30 09:34:37;;;;;;;4.18;3.22;;;;;;;17.01;73.44;100866.47;4394807;32;32663;-87
2021/09/30 09:37:20;;;;;;;3.45;2.95;;;;;;;17.39;72.00;100857.94;4414104;32;33955;-88
2021/09/30 09:39:51;;;;;;;4.32;3.15;;;;;;;17.10;73.05;100862.81;4408370;32;33974;-87
2021/09/30 09:42:25;;;;;;;2.97;2.78;;;;;;;17.19;72.06;100867.22;4390235;32;34368;-89
2021/09/30 09:45:16;;;;;;;2.40;2.05;;;;;;;17.24;72.46;100865.75;4396430;32;33122;-87
2021/09/30 09:48:01;;;;;;;7.32;4.75;;;;;;;17.05;72.26;100874.03;4397905;32;34255;-86
2021/09/30 09:50:41;;;;;;;4.90;3.97;;;;;;;17.22;71.66;100869.59;4387692;32;34073;-86
2021/09/30 09:53:31;;;;;;;4.10;2.67;;;;;;;17.02;72.63;100860.94;4407966;32;33297;-85
2021/09/30 09:56:24;;;;;;;2.75;2.55;;;;;;;17.21;71.90;100866.06;4389725;32;33511;-87
2021/09/30 09:58:56;;;;;;;2.47;2.28;;;;;;;17.23;71.21;100860.50;4387221;32;34358;-87
2021/09/30 10:01:45;;;;;;;4.05;3.35;;;;;;;17.17;71.42;100864.69;4383069;32;35550;-90
2021/09/30 10:04:14;;;;;;;3.42;3.12;;;;;;;16.90;72.44;100867.56;4404185;32;34011;-86
2021/09/30 10:06:51;;;;;;;2.47;2.25;;;;;;;17.17;71.89;100867.37;4376598;32;33414;-87
2021/09/30 10:09:20;;;;;;;9.95;3.37;;;;;;;16.92;72.55;100876.34;4410769;32;33880;-87
2021/09/30 10:11:50;;;;;;;3.97;2.92;;;;;;;17.09;71.61;100875.41;4388375;32;34678;-85
2021/09/30 10:14:24;;;;;;;3.25;3.03;;;;;;;17.17;71.68;100883.50;4384264;32;35446;-87
2021/09/30 10:16:58;;;;;;;7.10;3.10;;;;;;;17.42;69.57;100879.12;4399601;32;32706;-87
2021/09/30 10:19:28;;;;;;;3.25;2.83;;;;;;;16.89;72.56;100891.94;4390715;32;33003;-85
2021/09/30 10:22:16;;;;;;;2.97;2.20;;;;;;;17.04;72.03;100884.94;4403166;32;35095;-85
2021/09/30 10:25:00;;;;;;;3.17;2.97;;;;;;;16.95;72.21;100889.44;4388388;32;35808;-87
2021/09/30 10:27:39;;;;;;;1.92;1.83;;;;;;;17.21;71.55;100892.97;4382859;32;33796;-85
2021/09/30 10:30:34;;;;;;;3.67;2.92;;;;;;;17.18;71.88;100895.13;4381906;32;32619;-86
2021/09/30 10:33:40;;;;;;;2.55;2.37;;;;;;;16.85;72.36;100901.28;4403027;32;34631;-87
2021/09/30 10:36:44;;;;;;;3.95;2.67;;;;;;;17.17;71.74;100896.97;4402625;32;34077;-85
2021/09/30 10:39:24;;;;;;;2.28;2.12;;;;;;;17.19;71.85;100903.00;4380842;32;32030;-84
2021/09/30 10:42:04;;;;;;;4.97;3.03;;;;;;;17.33;71.26;100899.75;4408196;32;33948;-85
2021/09/30 10:45:09;;;;;;;7.32;4.12;;;;;;;17.32;71.11;100898.06;4385370;32;35043;-85
2021/09/30 10:47:43;;;;;;;3.00;2.20;;;;;;;17.63;70.18;100897.41;4394637;32;33962;-85
2021/09/30 10:50:47;;;;;;;2.60;2.40;;;;;;;17.47;71.26;100901.03;4410391;32;32286;-86
2021/09/30 10:53:50;;;;;;;3.75;3.30;;;;;;;17.24;72.57;100897.16;4395930;32;32886;-86
2021/09/30 10:56:31;;;;;;;3.97;3.60;;;;;;;17.58;71.32;100898.88;4385646;32;35624;-86
2021/09/30 10:59:08;;;;;;;3.95;3.65;;;;;;;17.49;71.67;100902.56;4391930;32;34602;-84
2021/09/30 11:01:46;;;;;;;2.25;2.05;;;;;;;16.70;73.99;100908.25;4397262;32;32920;-85
2021/09/30 11:04:25;;;;;;;2.58;2.37;;;;;;;17.42;72.05;100906.03;4398232;32;34176;-87
2021/09/30 11:07:16;;;;;;;4.18;2.22;;;;;;;17.68;71.03;100902.28;4400105;32;34413;-88
2021/09/30 11:10:11;;;;;;;2.95;2.67;;;;;;;17.66;70.84;100902.44;4400476;32;34850;-86
2021/09/30 11:13:18;;;;;;;3.30;3.03;;;;;;;17.58;70.87;100896.19;4411901;32;33515;-85
2021/09/30 11:16:20;;;;;;;5.85;3.37;;;;;;;17.93;69.78;100899.50;4399192;32;34392;-88
2021/09/30 11:19:24;;;;;;;2.97;2.75;;;;;;;18.00;69.66;100894.28;4375687;32;34007;-85
2021/09/30 11:22:01;;;;;;;4.05;3.75;;;;;;;18.02;68.22;100889.56;4390019;32;34242;-85
2021/09/30 11:24:54;;;;;;;2.80;2.62;;;;;;;17.98;68.98;100888.22;4402711;32;32452;-85
2021/09/30 11:27:39;;;;;;;3.80;3.33;;;;;;;18.05;69.46;100886.56;4402481;32;33987;-86
2021/09/30 11:30:25;;;;;;;3.60;3.30;;;;;;;18.24;69.15;100888.97;4388906;32;34905;-84
2021/09/30 11:32:55;;;;;;;3.30;3.08;;;;;;;18.42;68.21;100884.28;4383841;32;34010;-84
2021/09/30 11:35:26;;;;;;;5.60;3.42;;;;;;;18.29;68.33;100882.09;4386860;32;32670;-85
2021/09/30 11:37:56;;;;;;;3.53;3.12;;;;;;;18.32;68.24;100878.22;4395455;32;33872;-85
2021/09/30 11:40:31;;;;;;;4.05;3.75;;;;;;;18.17;68.71;100878.00;4374490;32;33916;-85
2021/09/30 11:43:19;;;;;;;;;;;;;;;18.40;68.28;100879.06;4410356;32;34510;-89
2021/09/30 11:46:32;;;;;;;4.07;3.60;;;;;;;18.28;68.78;100875.00;4402144;32;33986;-86
2021/09/30 11:49:16;;;;;;;5.82;4.53;;;;;;;18.34;68.91;100876.19;4390034;32;32868;-86
2021/09/30 11:52:11;;;;;;;14.27;3.65;;;;;;;18.26;68.85;100873.47;4407532;32;34749;-88
2021/09/30 11:54:41;;;;;;;7.82;2.35;;;;;;;18.33;67.90;100872.66;4409951;32;34452;-88
2021/09/30 11:57:24;;;;;;;4.37;3.17;;;;;;;18.24;68.21;100870.09;4390003;32;32742;-90
2021/09/30 12:00:11;;;;;;;7.12;4.25;;;;;;;18.38;67.27;100873.00;4384405;32;32364;-87
2021/09/30 12:02:58;;;;;;;3.50;3.20;;;;;;;18.22;68.25;100869.44;4391891;32;34580;-88
2021/09/30 12:05:36;;;;;;;3.65;3.35;;;;;;;18.37;68.41;100870.47;4388127;32;34425;-88
2021/09/30 12:08:15;;;;;;;3.60;3.30;;;;;;;18.18;69.12;100873.44;4381026;32;35614;-87
2021/09/30 12:10:59;;;;;;;4.85;3.37;;;;;;;18.66;66.31;100870.78;4387037;32;33935;-88
2021/09/30 12:13:57;;;;;;;3.50;3.22;;;;;;;18.54;68.14;100880.25;4395872;32;34563;-89
2021/09/30 12:16:34;;;;;;;3.45;3.25;;;;;;;18.61;67.65;100881.25;4379661;32;34191;-88
2021/09/30 12:19:30;;;;;;;6.30;4.28;;;;;;;18.52;68.29;100875.00;4363248;32;32637;-89
2021/09/30 12:22:22;;;;;;;5.07;4.68;;;;;;;18.62;68.41;100872.16;4384478;32;33938;-88
2021/09/30 12:24:59;;;;;;;4.18;3.87;;;;;;;18.63;68.32;100876.53;4377377;32;36218;-88
2021/09/30 12:27:50;;;;;;;2.72;2.53;;;;;;;18.58;68.48;100877.03;4378353;32;33329;-87
2021/09/30 12:30:26;;;;;;;3.53;3.33;;;;;;;18.79;67.60;100869.25;4369767;32;32916;-86
2021/09/30 12:33:01;;;;;;;4.45;4.15;;;;;;;18.61;68.11;100876.69;4372148;32;33447;-90
2021/09/30 12:35:39;;;;;;;4.18;3.62;;;;;;;18.60;67.92;100875.00;4371889;32;35840;-87
2021/09/30 12:38:14;;;;;;;8.23;5.37;;;;;;;18.88;67.20;100878.19;4375996;32;33735;-89
2021/09/30 12:40:53;;;;;;;12.85;9.20;;;;;;;18.77;67.72;100882.06;4389389;32;33439;-88
2021/09/30 12:43:30;;;;;;;7.97;6.75;;;;;;;19.14;67.00;100876.94;4388687;32;34164;-90
2021/09/30 12:46:10;;;;;;;9.32;5.40;;;;;;;19.16;67.58;100874.91;4389453;32;34403;-88
2021/09/30 12:48:41;;;;;;;8.27;6.22;;;;;;;19.40;65.78;100869.47;4371397;32;34648;-89
2021/09/30 12:51:22;;;;;;;3.67;3.30;;;;;;;19.40;66.48;100857.81;4391490;32;32763;-89
2021/09/30 12:53:54;;;;;;;;;;;;;;;19.48;66.98;100863.19;4385524;32;32808;-87
2021/09/30 12:56:29;;;;;;;3.00;2.78;;;;;;;19.61;65.67;100858.06;4386376;32;34840;-87
2021/09/30 12:59:16;;;;;;;4.35;3.33;;;;;;;19.60;66.97;100867.19;4368713;32;33527;-86
2021/09/30 13:06:22;;;;;;;3.55;3.25;;;;;;;19.82;65.26;100861.81;4336643;33;34406;-89
2021/09/30 13:10:30;;;;;;;2.12;2.03;;;;;;;19.67;65.25;100857.37;4336019;33;36596;-89
2021/09/30 13:14:27;;;;;;;4.82;2.87;;;;;;;19.86;65.36;100849.66;4314535;33;35207;-90
2021/09/30 13:21:40;;;;;;;6.03;2.78;;;;;;;19.64;66.14;100846.94;4314878;33;32808;-89
2021/09/30 13:24:53;;;;;;;2.72;2.42;;;;;;;20.72;62.94;100841.06;4271282;33;33961;-90
2021/09/30 13:32:12;;;;;;;3.17;1.37;;;;;;;21.68;58.32;100839.97;4290198;33;33626;-87
2021/09/30 13:36:03;;;;;;;;;;;;;;;;;;;;;
2021/09/30 13:45:12;;;;;;;1.37;1.27;;;;;;;22.42;50.45;100836.84;4290279;33;33541;-89
2021/09/30 13:52:15;;;;;;;0.93;0.82;;;;;;;21.83;51.95;100829.94;4301294;33;35498;-87
2021/09/30 14:12:17;;;;;;;0.40;0.40;;;;;;;21.71;51.75;100826.06;4348335;27;32303;-84
2021/09/30 14:14:48;;;;;;;4.95;0.82;;;;;;;21.79;52.00;100820.53;4351522;32;33540;-84
2021/09/30 14:17:16;;;;;;;0.40;0.40;;;;;;;21.79;51.12;100822.38;4334938;32;34160;-83
2021/09/30 14:19:47;;;;;;;;;;;;;;;22.06;51.08;100819.78;4377917;32;35132;-83
2021/09/30 14:22:29;;;;;;;0.40;0.40;;;;;;;21.99;50.98;100816.16;4342081;32;33535;-82
2021/09/30 14:25:08;;;;;;;1.62;0.82;;;;;;;22.01;50.97;100822.22;4353074;32;33385;-84
2021/09/30 14:27:36;;;;;;;1.00;0.55;;;;;;;22.17;51.15;100811.13;4354417;32;34142;-83
2021/09/30 14:30:05;;;;;;;6.12;1.48;;;;;;;22.32;51.12;100819.19;4342616;32;34371;-83
2021/09/30 14:32:53;;;;;;;0.55;0.55;;;;;;;22.14;49.94;100806.09;4367696;32;33472;-83
2021/09/30 14:35:22;;;;;;;0.50;0.50;;;;;;;22.19;49.91;100811.75;4355049;32;34613;-83
2021/09/30 14:37:50;;;;;;;0.77;0.77;;;;;;;22.11;49.42;100808.34;4342697;32;36570;-84
2021/09/30 14:40:19;;;;;;;4.20;0.40;;;;;;;22.20;47.24;100810.72;4353009;32;34471;-83
2021/09/30 14:42:47;;;;;;;0.30;0.22;;;;;;;22.29;46.16;100808.72;4353712;32;33934;-83
2021/09/30 14:45:15;;;;;;;1.10;0.55;;;;;;;22.00;48.02;100806.97;4341759;32;32292;-82
2021/09/30 14:47:47;;;;;;;3.15;0.70;;;;;;;22.01;49.44;100803.25;4349525;32;33805;-84
2021/09/30 14:50:16;;;;;;;0.40;0.40;;;;;;;22.24;50.06;100805.75;4366783;32;34163;-86
2021/09/30 14:52:49;;;;;;;1.33;0.85;;;;;;;22.41;50.70;100808.03;4344794;32;34214;-87
2021/09/30 14:55:20;;;;;;;0.57;0.57;;;;;;;22.45;51.18;100814.75;4341395;32;33748;-86
2021/09/30 14:57:47;;;;;;;;;;;;;;;22.38;49.81;100813.00;4358377;32;36031;-84
2021/09/30 15:00:15;;;;;;;1.17;0.50;;;;;;;22.73;48.94;100812.06;4344771;32;33254;-84
2021/09/30 15:02:43;;;;;;;;;;;;;;;22.66;46.84;100813.88;4354427;32;32129;-84
2021/09/30 15:05:11;;;;;;;;;;;;;;;23.07;48.16;100810.19;4366650;32;35708;-85
2021/09/30 15:07:39;;;;;;;0.40;0.40;;;;;;;23.05;45.39;100811.41;4355579;32;35054;-84
2021/09/30 15:10:07;;;;;;;3.65;0.80;;;;;;;23.06;45.40;100811.22;4355898;32;34849;-83
2021/09/30 15:12:35;;;;;;;1.27;0.80;;;;;;;23.14;47.09;100808.38;4334210;32;32094;-84
2021/09/30 15:15:05;;;;;;;0.50;0.50;;;;;;;23.56;42.64;100810.88;4370362;32;33339;-83
2021/09/30 15:22:36;;;;;;;0.22;0.22;;;;;;;23.73;39.28;100805.91;4368843;32;33418;-82
2021/09/30 15:25:06;;;;;;;2.85;0.47;;;;;;;23.36;42.80;100811.81;4352394;32;33860;-84
2021/09/30 15:27:36;;;;;;;2.15;0.77;;;;;;;23.55;42.34;100813.78;4369086;32;35803;-84
2021/09/30 15:30:05;;;;;;;2.40;1.23;;;;;;;23.69;44.34;100813.63;4355228;32;33983;-82
2021/09/30 15:32:33;;;;;;;0.43;0.43;;;;;;;23.69;44.27;100818.25;4368013;32;32991;-83
2021/09/30 15:35:02;;;;;;;1.02;0.40;;;;;;;23.50;43.52;100821.72;4354264;32;33868;-85
2021/09/30 15:37:30;;;;;;;1.00;0.52;;;;;;;23.43;43.28;100813.53;4364338;32;35392;-84
2021/09/30 15:39:59;;;;;;;0.43;0.25;;;;;;;23.35;43.22;100816.44;4354055;32;34174;-86
2021/09/30 15:42:28;;;;;;;0.47;0.47;;;;;;;23.13;44.69;100820.22;4352784;32;32599;-85
2021/09/30 15:44:57;;;;;;;0.65;0.65;;;;;;;22.81;43.16;100828.16;4367365;32;35232;-85
2021/09/30 15:47:28;;;;;;;1.23;0.30;;;;;;;22.51;45.54;100830.25;4355921;32;34719;-84
2021/09/30 15:49:56;;;;;;;0.80;0.80;;;;;;;22.54;45.28;100832.56;4353526;32;34652;-86
2021/09/30 15:59:09;;;;;;;0.55;0.40;;;;;;;22.45;44.96;100832.91;4362985;32;35873;-86
2021/09/30 16:16:34;;;;;;;0.22;0.22;;;;;;;21.22;47.07;100848.50;4355296;32;34616;-85
2021/09/30 16:32:18;;;;;;;0.62;0.62;;;;;;;19.72;50.20;100855.81;4336962;33;33504;-87
2021/09/30 16:35:57;;;;;;;1.02;0.52;;;;;;;19.57;50.48;100864.84;4315813;33;34975;-85
2021/09/30 16:45:34;;;;;;;0.55;0.50;;;;;;;18.81;52.69;100867.22;4299410;33;32144;-86
2021/09/30 16:59:05;;;;;;;;;;;;;;;;;;;;;
2021/09/30 17:13:08;;;;;;;1.60;0.82;;;;;;;18.14;51.96;100877.50;4220823;33;33123;-87
2021/09/30 17:20:30;;;;;;;;;;;;;;;;;;;;;
2021/09/30 17:33:25;;;;;;;0.65;0.65;;;;;;;17.55;57.94;100888.44;4244731;33;35116;-86
2021/09/30 17:37:00;;;;;;;1.10;0.60;;;;;;;17.44;57.99;100896.78;4271126;33;35272;-87
2021/09/30 17:50:13;;;;;;;2.75;0.43;;;;;;;17.34;57.63;100908.66;4299731;33;34439;-85
2021/09/30 18:00:37;;;;;;;0.80;0.80;;;;;;;16.80;59.97;100915.19;4276817;33;35899;-86
2021/09/30 18:03:51;;;;;;;0.90;0.88;;;;;;;16.87;60.13;100924.34;4290267;33;34066;-87